Time;durP1;ratioP1;P1;durP2;ratioP2;P2;SDS_P1;SDS_P2;PMS_P1;PMS_P2;Temp;Humidity;BMP_temperature;BMP_pressure;BME280_temperature;BME280_humidity;BME280_pressure;Samples;Min_cycle;Max_cycle;Signal;HPM_P1;HPM_P2
2023/04/09 00:01:09;;;;;;;34.83;23.83;;;4.10;99.90;;;-141.84;80.52;19202.16;5072537;28;20206;-60
2023/04/09 00:03:39;;;;;;;35.07;25.40;;;4.10;99.90;;;-141.84;80.50;19189.97;5071638;28;20220;-60
2023/04/09 00:06:07;;;;;;;33.27;24.07;;;4.00;99.90;;;-141.84;80.55;19173.69;5072363;28;20233;-61
2023/04/09 00:08:35;;;;;;;36.40;24.80;;;4.00;99.90;;;-141.84;80.19;19171.66;5072149;28;20241;-60
2023/04/09 00:11:04;;;;;;;34.27;23.03;;;4.00;99.90;;;-141.84;80.44;19185.88;5060334;28;20227;-61
2023/04/09 00:13:34;;;;;;;34.93;25.13;;;4.00;99.90;;;-141.84;79.91;19189.97;5072632;28;20197;-60
2023/04/09 00:16:07;;;;;;;35.10;24.57;;;4.10;99.90;;;-141.84;80.01;19198.09;5072441;28;20197;-59
2023/04/09 00:18:36;;;;;;;36.13;24.57;;;4.00;99.90;;;-141.84;79.98;19171.66;5071909;28;20317;-60
2023/04/09 00:21:05;;;;;;;36.00;25.40;;;4.10;99.90;;;-141.84;80.04;19149.31;5081286;28;20228;-61
2023/04/09 00:23:34;;;;;;;38.70;26.03;;;4.10;99.90;;;-141.84;80.08;19161.50;5091334;28;20264;-61
2023/04/09 00:26:03;;;;;;;40.70;27.13;;;4.00;99.90;;;-141.84;79.12;19185.88;5092310;28;20240;-60
2023/04/09 00:28:32;;;;;;;35.90;26.40;;;4.10;99.90;;;-141.84;78.74;19206.22;5079025;28;20201;-59
2023/04/09 00:31:00;;;;;;;38.43;27.33;;;4.10;99.90;;;-141.84;79.19;19204.19;5072263;28;20217;-60
2023/04/09 00:33:29;;;;;;;36.23;25.37;;;4.10;99.90;;;-141.84;79.93;19139.16;5071475;28;20316;-60
2023/04/09 00:35:57;;;;;;;35.07;24.57;;;4.00;99.90;;;-141.84;80.34;19169.63;5071266;28;20229;-61
2023/04/09 00:38:25;;;;;;;38.23;25.37;;;3.90;99.90;;;-141.84;80.90;19202.16;5070714;28;20634;-59
2023/04/09 00:40:54;;;;;;;38.60;26.23;;;3.80;99.90;;;-141.84;80.69;19163.53;5070785;28;20740;-60
2023/04/09 00:43:22;;;;;;;35.17;25.60;;;3.80;99.90;;;-141.84;81.15;19153.38;5071733;28;20195;-60
2023/04/09 00:45:51;;;;;;;38.90;26.40;;;3.80;99.90;;;-141.84;81.53;19163.53;5071457;28;20230;-60
2023/04/09 00:48:20;;;;;;;37.07;26.77;;;3.70;99.90;;;-141.84;81.73;19139.16;5071025;28;20261;-60
2023/04/09 00:50:49;;;;;;;40.23;27.50;;;3.60;99.90;;;-141.84;81.75;19147.28;5055754;28;20236;-60
2023/04/09 00:53:18;;;;;;;37.47;27.50;;;3.60;99.90;;;-141.84;81.84;19157.44;5054804;28;20221;-60
2023/04/09 00:55:46;;;;;;;40.03;26.93;;;3.50;99.90;;;-141.84;82.04;19118.84;5070683;28;20230;-61
2023/04/09 00:58:14;;;;;;;41.93;27.63;;;3.50;99.90;;;-141.84;82.21;19116.81;5071034;28;20681;-60
2023/04/09 01:00:42;;;;;;;39.47;27.10;;;3.50;99.90;;;-141.84;81.63;19131.03;5070582;28;20249;-60
2023/04/09 01:03:13;;;;;;;38.23;26.90;;;3.50;99.90;;;-141.84;80.34;19141.19;5070433;28;20338;-59
2023/04/09 01:05:54;;;;;;;36.77;26.43;;;3.60;99.90;;;-141.84;78.41;19214.34;5068761;28;20757;-61
2023/04/09 01:08:38;;;;;;;36.40;25.83;;;3.80;99.90;;;-141.84;78.33;19179.78;5068211;28;20253;-60
2023/04/09 01:11:30;;;;;;;35.53;24.93;;;3.80;99.90;;;-141.84;79.17;19122.91;5070577;28;20235;-60
2023/04/09 01:14:08;;;;;;;36.53;24.93;;;3.70;99.90;;;-141.84;79.49;19120.88;5070867;28;20252;-59
2023/04/09 01:16:44;;;;;;;36.40;25.37;;;3.70;99.90;;;-141.84;79.69;19169.63;5074499;28;20199;-59
2023/04/09 01:19:43;;;;;;;37.10;25.77;;;3.60;99.90;;;-141.84;80.38;19159.47;5091448;28;20291;-61
2023/04/09 01:22:32;;;;;;;35.33;24.50;;;3.50;99.90;;;-141.84;81.50;19094.44;5090165;28;20603;-59
2023/04/09 01:25:13;;;;;;;40.20;26.37;;;3.40;99.90;;;-141.84;80.20;19143.22;5090726;28;20239;-60
2023/04/09 01:28:07;;;;;;;35.53;25.50;;;3.50;99.90;;;-141.84;80.34;19131.03;5080415;28;20244;-60
2023/04/09 01:30:36;;;;;;;36.40;25.17;;;3.40;99.90;;;-141.84;81.56;19133.06;5050403;28;20351;-60
2023/04/09 01:33:06;;;;;;;35.70;24.13;;;3.30;99.90;;;-141.84;82.25;19090.38;5015453;28;20305;-60
2023/04/09 01:35:35;;;;;;;36.50;25.57;;;3.20;99.90;;;-141.84;82.52;19059.91;5049902;28;20723;-60
2023/04/09 01:38:05;;;;;;;37.40;25.80;;;3.20;99.90;;;-141.84;82.69;19098.50;5069885;28;20231;-60
2023/04/09 01:40:33;;;;;;;38.97;25.87;;;3.20;99.90;;;-141.84;82.79;19110.72;5069879;28;20210;-59
2023/04/09 01:43:03;;;;;;;37.43;24.10;;;3.10;99.90;;;-141.84;82.28;19100.53;5071007;28;20208;-60
2023/04/09 01:45:33;;;;;;;39.13;26.27;;;3.10;99.90;;;-141.84;82.67;19106.66;5070119;28;20227;-60
2023/04/09 01:48:04;;;;;;;36.43;25.27;;;3.10;99.90;;;-141.84;82.85;19061.94;5070325;28;20234;-59
2023/04/09 01:50:33;;;;;;;37.50;25.97;;;3.00;99.90;;;-141.84;82.73;19082.25;5069828;28;20237;-60
2023/04/09 01:53:02;;;;;;;38.27;25.60;;;3.00;99.90;;;-141.84;82.65;19108.69;5069999;28;20232;-60
2023/04/09 01:55:30;;;;;;;39.93;26.87;;;3.10;99.90;;;-141.84;82.42;19110.72;5070161;28;20669;-61
2023/04/09 01:57:59;;;;;;;43.57;28.40;;;3.10;99.90;;;-141.84;82.44;19114.78;5071266;28;20205;-60
2023/04/09 02:00:36;;;;;;;41.33;26.93;;;3.10;99.90;;;-141.84;82.43;19106.66;5069944;28;20239;-60
2023/04/09 02:03:11;;;;;;;41.70;26.70;;;3.10;99.90;;;-141.84;82.33;19116.81;5070170;28;20235;-61
2023/04/09 02:05:49;;;;;;;40.33;26.50;;;3.10;99.90;;;-141.84;82.00;19147.28;5069547;28;20233;-61
2023/04/09 02:08:21;;;;;;;38.23;26.37;;;3.10;99.90;;;-141.84;81.68;19139.16;5070113;28;20246;-60
2023/04/09 02:10:56;;;;;;;39.80;26.20;;;3.20;99.90;;;-141.84;81.71;19153.38;5069394;28;20224;-60
2023/04/09 02:13:26;;;;;;;39.30;26.13;;;3.20;99.90;;;-141.84;81.89;19102.56;5078381;28;20207;-60
2023/04/09 02:15:59;;;;;;;39.97;27.37;;;3.20;99.90;;;-141.84;82.16;19082.25;5090496;28;20544;-59
2023/04/09 02:18:31;;;;;;;46.27;29.53;;;3.10;99.90;;;-141.84;82.56;19088.34;5090032;28;20261;-59
2023/04/09 02:20:59;;;;;;;40.27;27.60;;;3.10;99.90;;;-141.84;82.46;19104.59;5088893;28;20224;-60
2023/04/09 02:23:28;;;;;;;42.63;27.80;;;3.10;99.90;;;-141.84;82.87;19078.19;5089946;28;20606;-60
2023/04/09 02:25:56;;;;;;;44.57;29.40;;;3.10;99.90;;;-141.84;83.18;19078.19;5090768;28;20593;-62
2023/04/09 02:28:25;;;;;;;41.67;27.83;;;3.00;99.90;;;-141.84;83.00;19092.41;5079984;28;20314;-60
2023/04/09 02:30:54;;;;;;;44.93;29.33;;;3.00;99.90;;;-141.84;82.79;19086.31;5069763;28;20759;-60
2023/04/09 02:33:23;;;;;;;44.70;29.33;;;3.00;99.90;;;-141.84;82.87;19118.84;5069676;28;20228;-60
2023/04/09 02:35:51;;;;;;;42.10;28.47;;;3.00;99.90;;;-141.84;83.50;19078.19;5072350;28;20235;-60
2023/04/09 02:38:19;;;;;;;44.90;30.10;;;3.00;99.90;;;-141.84;83.66;19092.41;5073633;28;20312;-60
2023/04/09 02:40:47;;;;;;;48.77;32.10;;;3.00;99.90;;;-141.84;83.36;19137.13;5072883;28;20222;-59
2023/04/09 02:43:16;;;;;;;48.17;32.23;;;3.00;99.90;;;-141.84;83.32;19084.28;5073987;28;20290;-59
2023/04/09 02:45:44;;;;;;;43.63;29.53;;;3.00;99.90;;;-141.84;83.03;19053.81;5073142;28;20231;-60
2023/04/09 02:48:13;;;;;;;46.33;30.17;;;3.00;99.90;;;-141.84;83.13;19104.59;5073531;28;20223;-60
2023/04/09 02:50:42;;;;;;;46.97;31.23;;;2.90;99.90;;;-141.84;83.39;19078.19;5058673;28;20600;-59
2023/04/09 02:53:10;;;;;;;46.97;30.93;;;2.90;99.90;;;-141.84;83.71;19078.19;5056878;28;20216;-60
2023/04/09 02:55:38;;;;;;;46.10;31.13;;;2.80;99.90;;;-141.84;83.84;19088.34;5073235;28;20209;-60
2023/04/09 02:58:06;;;;;;;42.70;29.43;;;2.80;99.90;;;-141.84;84.30;19035.53;5073917;28;20205;-60
2023/04/09 03:00:34;;;;;;;47.33;30.03;;;2.70;99.90;;;-141.84;84.58;19070.06;5073159;28;20228;-62
2023/04/09 03:03:03;;;;;;;50.70;31.17;;;2.70;99.90;;;-141.84;84.58;19094.44;5073315;28;20232;-61
2023/04/09 03:05:32;;;;;;;43.73;30.67;;;2.70;99.90;;;-141.84;84.38;19055.84;5072165;28;20782;-60
2023/04/09 03:08:02;;;;;;;46.00;31.10;;;2.70;99.90;;;-141.84;84.44;19082.25;5072823;28;20235;-60
2023/04/09 03:10:30;;;;;;;47.10;32.00;;;2.70;99.90;;;-141.84;84.67;19066.00;5072123;28;20668;-61
2023/04/09 03:12:58;;;;;;;44.80;30.43;;;2.70;99.90;;;-141.84;84.78;19059.91;5073520;28;20215;-59
2023/04/09 03:15:26;;;;;;;49.40;32.47;;;2.70;99.90;;;-141.84;84.91;19039.59;5072441;28;20235;-60
2023/04/09 03:17:54;;;;;;;46.03;30.90;;;2.70;99.90;;;-141.84;84.55;19078.19;5073026;28;20232;-60
2023/04/09 03:20:23;;;;;;;46.80;33.00;;;2.70;99.90;;;-141.84;84.40;19041.63;5072353;28;20224;-60
2023/04/09 03:22:52;;;;;;;56.37;39.37;;;2.70;99.90;;;-141.84;84.56;19100.53;5072842;28;20236;-60
2023/04/09 03:25:20;;;;;;;54.43;39.23;;;2.70;99.90;;;-141.84;84.72;19070.06;5073001;28;20249;-61
2023/04/09 03:27:49;;;;;;;63.73;45.40;;;2.60;99.90;;;-141.84;84.77;19029.44;5072260;28;20228;-60
2023/04/09 03:30:17;;;;;;;65.00;45.27;;;2.60;99.90;;;-141.84;84.86;19033.50;5072699;28;20235;-61
2023/04/09 03:32:45;;;;;;;62.53;44.37;;;2.60;99.90;;;-141.84;84.90;19055.84;5072654;28;20225;-59
2023/04/09 03:35:13;;;;;;;66.10;47.37;;;2.60;99.90;;;-141.84;84.74;19039.59;5071794;28;20663;-60
2023/04/09 03:37:41;;;;;;;75.97;51.07;;;2.60;99.90;;;-141.84;84.58;19043.66;5072175;28;20208;-60
2023/04/09 03:40:13;;;;;;;71.50;48.70;;;2.50;99.90;;;-141.84;84.40;19043.66;5072538;28;20210;-61
2023/04/09 03:42:43;;;;;;;79.63;51.70;;;2.50;99.90;;;-141.84;84.13;19068.03;5072105;28;20239;-59
2023/04/09 03:45:11;;;;;;;82.10;52.83;;;2.50;99.90;;;-141.84;83.79;19076.16;5071684;28;20304;-60
2023/04/09 03:47:40;;;;;;;83.73;53.30;;;2.50;99.90;;;-141.84;83.86;19070.06;5071496;28;20259;-60
2023/04/09 03:50:09;;;;;;;87.20;56.03;;;2.60;99.90;;;-141.84;83.93;19080.22;5062104;28;20251;-60
2023/04/09 03:52:37;;;;;;;86.23;56.13;;;2.60;99.90;;;-141.84;83.48;19098.50;5052271;28;20205;-61
2023/04/09 03:55:07;;;;;;;86.93;57.27;;;2.60;99.90;;;-141.84;83.05;19096.47;5071837;28;20679;-59
2023/04/09 03:57:36;;;;;;;85.30;54.40;;;2.60;99.90;;;-141.84;83.07;19072.09;5071827;28;20228;-60
2023/04/09 04:00:06;;;;;;;83.80;54.20;;;2.70;99.90;;;-141.84;83.04;19070.06;5072292;28;20220;-60
2023/04/09 04:02:34;;;;;;;79.77;51.07;;;2.60;99.90;;;-141.84;82.94;19070.06;5071963;28;20239;-61
2023/04/09 04:05:03;;;;;;;77.93;49.90;;;2.70;99.90;;;-141.84;83.18;19074.13;5072288;28;20266;-62
2023/04/09 04:07:32;;;;;;;74.47;48.47;;;2.60;99.90;;;-141.84;83.45;19021.31;5075512;28;20206;-63
2023/04/09 04:10:01;;;;;;;72.43;47.30;;;2.60;99.90;;;-141.84;84.19;19047.72;5073125;28;20255;-60
2023/04/09 04:12:31;;;;;;;71.53;46.17;;;2.50;99.90;;;-141.84;84.53;19074.13;5071429;28;20232;-61
2023/04/09 04:15:01;;;;;;;68.67;46.10;;;2.50;99.90;;;-141.84;84.53;19025.38;5072061;28;20225;-60
2023/04/09 04:17:29;;;;;;;73.43;47.37;;;2.40;99.90;;;-141.84;84.76;19051.78;5072023;28;20224;-60
2023/04/09 04:19:57;;;;;;;67.50;44.00;;;2.40;99.90;;;-141.84;85.02;19029.44;5070966;28;20225;-60
2023/04/09 04:22:26;;;;;;;70.43;45.63;;;2.40;99.90;;;-141.84;85.23;19066.00;5071686;28;20201;-60
2023/04/09 04:24:54;;;;;;;67.60;44.27;;;2.30;99.90;;;-141.84;84.36;19084.28;5072063;28;20243;-61
2023/04/09 04:27:22;;;;;;;68.60;44.57;;;2.40;99.90;;;-141.84;83.95;19045.69;5070850;28;20238;-59
2023/04/09 04:29:50;;;;;;;63.07;42.47;;;2.50;99.90;;;-141.84;84.25;19041.63;5071627;28;20255;-60
2023/04/09 04:32:20;;;;;;;65.80;44.00;;;2.40;99.90;;;-141.84;84.53;19051.78;5071611;28;20230;-60
2023/04/09 04:34:49;;;;;;;60.40;41.40;;;2.40;99.90;;;-141.84;84.75;19043.66;5070824;28;20715;-60
2023/04/09 04:37:17;;;;;;;61.97;41.37;;;2.40;99.90;;;-141.84;84.81;19023.34;5071694;28;20211;-61
2023/04/09 04:39:46;;;;;;;61.70;38.43;;;2.40;99.90;;;-141.84;84.83;19068.03;5071430;28;20220;-61
2023/04/09 04:42:14;;;;;;;57.30;38.83;;;2.40;99.90;;;-141.84;85.18;19029.44;5070612;28;20228;-61
2023/04/09 04:44:42;;;;;;;58.47;37.83;;;2.40;99.90;;;-141.84;85.45;19043.66;5071088;28;20235;-61
2023/04/09 04:47:10;;;;;;;57.47;38.47;;;2.50;99.90;;;-141.84;85.51;19066.00;5071104;28;20240;-59
2023/04/09 04:49:40;;;;;;;52.33;36.87;;;2.50;99.90;;;-141.84;85.60;19049.75;5070341;28;20216;-59
2023/04/09 04:52:08;;;;;;;56.90;37.87;;;2.50;99.90;;;-141.84;85.23;19047.72;5035961;28;20208;-61
2023/04/09 04:54:37;;;;;;;52.27;36.33;;;2.60;99.90;;;-141.84;84.99;19098.50;5070760;28;20234;-60
2023/04/09 04:57:05;;;;;;;53.57;38.00;;;2.60;99.90;;;-141.84;85.12;19059.91;5070622;28;20228;-61
2023/04/09 04:59:37;;;;;;;53.30;35.73;;;2.60;99.90;;;-141.84;84.21;19086.31;5071191;28;20608;-60
2023/04/09 05:02:05;;;;;;;54.90;36.63;;;2.80;99.90;;;-141.84;83.99;19049.75;5071052;28;20273;-60
2023/04/09 05:04:34;;;;;;;50.90;36.03;;;2.80;99.90;;;-141.84;84.11;19041.63;5070493;28;20200;-60
2023/04/09 05:07:03;;;;;;;51.87;34.60;;;2.80;99.90;;;-141.84;84.20;19047.72;5071470;28;20204;-59
2023/04/09 05:09:32;;;;;;;49.80;34.50;;;2.80;99.90;;;-141.84;84.30;19080.22;5070746;28;20221;-59
2023/04/09 05:12:00;;;;;;;50.13;34.83;;;2.90;99.90;;;-141.84;84.42;19078.19;5070505;28;20236;-60
2023/04/09 05:14:28;;;;;;;50.57;34.53;;;2.80;99.90;;;-141.84;83.98;19078.19;5051601;28;20248;-61
2023/04/09 05:16:57;;;;;;;48.30;33.37;;;3.00;99.90;;;-141.84;83.78;19102.56;5070812;28;20238;-60
2023/04/09 05:19:25;;;;;;;48.87;33.57;;;3.00;99.90;;;-141.84;83.53;19102.56;5070522;28;20195;-61
2023/04/09 05:21:53;;;;;;;47.57;34.03;;;3.10;99.90;;;-141.84;82.72;19086.31;5071019;28;20216;-60
2023/04/09 05:24:23;;;;;;;47.93;33.43;;;3.20;99.90;;;-141.84;81.72;19100.53;5070539;28;20699;-61
2023/04/09 05:26:51;;;;;;;46.60;32.97;;;3.40;99.90;;;-141.84;81.15;19143.22;5070392;28;20711;-61
2023/04/09 05:29:19;;;;;;;49.37;32.90;;;3.50;99.90;;;-141.84;80.78;19102.56;5070097;28;20228;-61
2023/04/09 05:31:48;;;;;;;51.00;32.90;;;3.60;99.90;;;-141.84;80.16;19173.69;5070973;28;20301;-59
2023/04/09 05:34:16;;;;;;;45.90;33.00;;;3.90;99.90;;;-141.84;79.72;19161.50;5070128;28;20594;-59
2023/04/09 05:36:44;;;;;;;47.33;33.87;;;4.00;99.90;;;-141.84;78.72;19165.56;5069683;28;20221;-61
2023/04/09 05:39:13;;;;;;;46.70;32.13;;;4.10;99.90;;;-141.84;76.76;19163.53;5070518;28;20229;-60
2023/04/09 05:41:43;;;;;;;44.37;32.03;;;4.30;99.90;;;-141.84;76.46;19179.78;5070029;28;20746;-60
2023/04/09 05:44:12;;;;;;;45.27;31.97;;;4.40;99.90;;;-141.84;76.44;19196.06;5070487;28;20259;-61
2023/04/09 05:46:40;;;;;;;45.83;31.50;;;4.60;99.90;;;-141.84;75.64;19218.41;5070306;28;20202;-61
2023/04/09 05:49:08;;;;;;;43.00;31.40;;;4.70;99.90;;;-141.84;75.49;19220.44;5070143;28;20224;-60
2023/04/09 05:51:36;;;;;;;44.97;31.40;;;4.80;99.90;;;-141.84;75.35;19234.66;5070083;28;20652;-62
2023/04/09 05:54:04;;;;;;;47.60;32.10;;;5.00;99.90;;;-141.84;74.88;19250.91;5070760;28;20234;-61
2023/04/09 05:56:32;;;;;;;43.27;30.40;;;5.10;99.90;;;-141.84;73.52;19248.88;5071040;28;20503;-61
2023/04/09 05:59:02;;;;;;;42.53;30.40;;;5.20;99.90;;;-141.84;73.94;19263.09;5070737;28;20235;-61
2023/04/09 06:01:30;;;;;;;45.73;32.07;;;5.30;99.90;;;-141.84;73.19;19277.34;5071007;28;20202;-61
2023/04/09 06:03:58;;;;;;;43.33;31.20;;;5.30;99.90;;;-141.84;73.31;19244.81;5070827;28;20205;-60
2023/04/09 06:06:27;;;;;;;43.33;29.73;;;5.40;99.90;;;-141.84;73.94;19273.28;5070511;28;20305;-60
2023/04/09 06:08:55;;;;;;;41.73;31.50;;;5.40;99.90;;;-141.84;73.20;19240.75;5070753;28;20234;-60
2023/04/09 06:11:24;;;;;;;39.83;30.27;;;5.50;99.90;;;-141.84;73.19;19303.75;5074017;28;20229;-60
2023/04/09 06:13:52;;;;;;;42.23;30.07;;;5.50;99.90;;;-141.84;73.45;19240.75;5074586;28;20230;-60
2023/04/09 06:16:23;;;;;;;40.83;30.53;;;5.60;99.90;;;-141.84;73.57;19283.44;5074510;28;20200;-61
2023/04/09 06:18:53;;;;;;;41.70;29.80;;;5.60;99.90;;;-141.84;73.44;19271.25;5074253;28;20211;-62
2023/04/09 06:21:21;;;;;;;41.40;30.63;;;5.70;99.90;;;-141.84;72.78;19315.94;5074097;28;20254;-60
2023/04/09 06:23:52;;;;;;;40.33;29.87;;;5.70;99.90;;;-141.84;72.95;19334.22;5073682;28;20254;-60
2023/04/09 06:26:21;;;;;;;43.13;29.70;;;5.80;99.90;;;-141.84;72.80;19313.91;5074248;28;20282;-61
2023/04/09 06:28:49;;;;;;;41.33;28.70;;;5.90;99.90;;;-141.84;72.45;19309.84;5073515;28;20224;-60
2023/04/09 06:31:17;;;;;;;39.60;29.80;;;6.00;99.90;;;-141.84;72.69;19328.13;5074758;28;20237;-61
2023/04/09 06:33:47;;;;;;;38.67;27.87;;;6.00;99.90;;;-141.84;72.49;19311.88;5073396;28;20230;-60
2023/04/09 06:36:15;;;;;;;39.83;28.13;;;6.00;99.90;;;-141.84;72.52;19313.91;5073547;28;20233;-59
2023/04/09 06:38:43;;;;;;;38.87;28.20;;;6.00;99.90;;;-141.84;72.07;19340.31;5073852;28;20230;-60
2023/04/09 06:41:11;;;;;;;39.73;28.87;;;6.00;99.90;;;-141.84;71.98;19368.78;5073416;28;20592;-61
2023/04/09 06:43:39;;;;;;;39.10;28.57;;;6.10;99.90;;;-141.84;71.61;19340.31;5073893;28;20207;-60
2023/04/09 06:46:08;;;;;;;37.17;26.87;;;6.10;99.90;;;-141.84;72.32;19354.56;5074344;28;20257;-60
2023/04/09 06:48:36;;;;;;;37.13;27.33;;;6.20;99.90;;;-141.84;71.67;19360.66;5073058;28;20232;-61
2023/04/09 06:51:07;;;;;;;34.37;25.37;;;6.30;99.90;;;-141.84;71.46;19326.09;5073283;28;20227;-61
2023/04/09 06:53:35;;;;;;;35.87;26.23;;;6.20;99.90;;;-141.84;71.68;19309.84;5072033;28;20226;-61
2023/04/09 06:56:04;;;;;;;34.17;25.40;;;6.30;99.90;;;-141.84;72.27;19338.28;5071315;28;20227;-61
2023/04/09 06:58:33;;;;;;;36.57;27.40;;;6.30;99.90;;;-141.84;71.59;19366.75;5038556;28;20566;-60
2023/04/09 07:01:01;;;;;;;39.20;28.13;;;6.40;99.90;;;-141.84;70.35;19366.75;5073933;28;20210;-60
2023/04/09 07:03:29;;;;;;;38.83;27.67;;;6.50;99.90;;;-141.84;69.52;19399.25;5073368;28;20573;-60
2023/04/09 07:05:58;;;;;;;35.77;26.10;;;6.50;99.90;;;-141.84;69.46;19393.16;5074162;28;20318;-59
2023/04/09 07:08:28;;;;;;;35.47;25.10;;;6.50;99.90;;;-141.84;70.17;19407.38;5073619;28;20227;-60
2023/04/09 07:10:56;;;;;;;31.63;25.03;;;6.50;99.90;;;-141.84;70.24;19380.97;5072714;28;20232;-62
2023/04/09 07:13:24;;;;;;;35.07;26.30;;;6.60;99.90;;;-141.84;70.32;19399.25;5073888;28;20404;-61
2023/04/09 07:15:53;;;;;;;35.13;25.93;;;6.60;99.90;;;-141.84;70.11;19401.28;5073684;28;20224;-60
2023/04/09 07:18:21;;;;;;;35.83;25.73;;;6.70;99.90;;;-141.84;70.06;19411.44;5072746;28;20740;-61
2023/04/09 07:20:49;;;;;;;35.33;25.30;;;6.90;99.90;;;-141.84;70.07;19405.34;5072968;28;20228;-60
2023/04/09 07:23:18;;;;;;;37.07;26.20;;;7.00;99.90;;;-141.84;69.17;19431.78;5069765;28;20286;-62
2023/04/09 07:25:47;;;;;;;35.80;25.00;;;7.10;99.90;;;-141.84;67.89;19423.66;5072788;28;20345;-60
2023/04/09 07:28:15;;;;;;;32.73;23.83;;;7.20;99.90;;;-141.84;67.39;19466.31;5072835;28;20200;-61
2023/04/09 07:30:45;;;;;;;31.43;22.90;;;7.30;99.90;;;-141.84;67.14;19439.91;5072438;28;20231;-60
2023/04/09 07:33:14;;;;;;;31.80;23.20;;;7.30;99.90;;;-141.84;67.37;19454.13;5072149;28;20228;-61
2023/04/09 07:35:42;;;;;;;31.93;23.23;;;7.40;99.90;;;-141.84;67.47;19460.22;5072299;28;20750;-60
2023/04/09 07:38:10;;;;;;;30.17;22.70;;;7.50;99.90;;;-141.84;67.72;19492.75;5072396;28;20228;-59
2023/04/09 07:40:38;;;;;;;31.10;22.53;;;7.50;99.90;;;-141.84;67.71;19511.03;5071978;28;20228;-60
2023/04/09 07:43:08;;;;;;;29.33;22.93;;;7.60;99.90;;;-141.84;67.74;19476.47;5073079;28;20540;-62
2023/04/09 07:45:36;;;;;;;29.07;22.23;;;7.60;99.90;;;-141.84;66.83;19494.78;5072096;28;20751;-60
2023/04/09 07:48:05;;;;;;;27.90;22.07;;;7.70;99.90;;;-141.84;66.27;19525.25;5072055;28;20233;-60
2023/04/09 07:50:33;;;;;;;30.33;22.73;;;7.80;99.90;;;-141.84;65.67;19484.59;5069401;28;20224;-60
2023/04/09 07:53:01;;;;;;;28.10;22.27;;;7.80;99.90;;;-141.84;65.33;19539.47;5090124;28;20235;-62
2023/04/09 07:55:29;;;;;;;28.90;21.80;;;7.90;99.90;;;-141.84;64.97;19557.78;5072084;28;20284;-60
2023/04/09 07:57:57;;;;;;;29.67;22.87;;;8.00;99.90;;;-141.84;64.85;19537.44;5072518;28;20569;-60
2023/04/09 08:00:27;;;;;;;27.27;21.03;;;8.00;99.90;;;-141.84;64.62;19549.63;5071818;28;20826;-60
2023/04/09 08:02:56;;;;;;;27.77;21.23;;;8.10;99.90;;;-141.84;64.03;19537.44;5071590;28;20232;-61
2023/04/09 08:05:24;;;;;;;28.47;21.40;;;8.20;99.90;;;-141.84;63.87;19563.88;5071698;28;20220;-60
2023/04/09 08:07:53;;;;;;;27.30;21.13;;;8.30;99.90;;;-141.84;63.97;19561.84;5071773;28;20236;-61
2023/04/09 08:10:21;;;;;;;27.13;20.50;;;8.30;99.90;;;-141.84;63.85;19582.16;5071717;28;20692;-60
2023/04/09 08:12:49;;;;;;;25.33;19.90;;;8.30;99.90;;;-141.84;63.43;19586.22;5071788;28;20800;-60
2023/04/09 08:15:17;;;;;;;28.43;22.47;;;8.50;99.90;;;-141.84;63.57;19622.81;5071700;28;20224;-59
2023/04/09 08:17:47;;;;;;;29.17;22.33;;;8.50;99.90;;;-141.84;62.80;19626.88;5071362;28;20224;-59
2023/04/09 08:20:16;;;;;;;25.70;21.10;;;8.60;99.90;;;-141.84;62.91;19637.03;5071687;28;20724;-60
2023/04/09 08:22:44;;;;;;;26.97;20.70;;;8.70;99.90;;;-141.84;62.63;19675.63;5072233;28;20196;-60
2023/04/09 08:25:12;;;;;;;25.57;20.30;;;8.80;99.90;;;-141.84;61.70;19655.31;5074721;28;20239;-61
2023/04/09 08:27:40;;;;;;;24.67;20.37;;;8.90;99.90;;;-141.84;60.35;19667.50;5070932;28;20225;-60
2023/04/09 08:30:10;;;;;;;24.83;19.50;;;9.10;99.90;;;-141.84;60.33;19702.06;5071101;28;20231;-61
2023/04/09 08:32:38;;;;;;;23.63;19.87;;;9.10;99.90;;;-141.84;59.74;19695.97;5070289;28;20228;-62
2023/04/09 08:35:09;;;;;;;23.93;19.73;;;9.10;99.90;;;-141.84;60.01;19669.53;5071242;28;20278;-60
2023/04/09 08:37:38;;;;;;;24.30;19.40;;;9.20;99.90;;;-141.84;59.97;19698.00;5071145;28;20200;-60
2023/04/09 08:40:09;;;;;;;23.83;19.17;;;9.20;99.90;;;-141.84;59.89;19681.75;5071518;28;20201;-62
2023/04/09 08:42:44;;;;;;;22.37;19.43;;;9.20;99.90;;;-141.84;59.03;19685.81;5070995;28;20240;-61
2023/04/09 08:45:13;;;;;;;24.60;19.13;;;9.30;99.90;;;-141.84;58.35;19726.44;5071160;28;20251;-61
2023/04/09 08:47:45;;;;;;;24.27;19.53;;;9.40;99.90;;;-141.84;58.56;19750.84;5083091;28;20220;-61
2023/04/09 08:50:15;;;;;;;23.70;20.70;;;9.40;99.90;;;-141.84;59.53;19700.03;5073701;28;20600;-61
2023/04/09 08:52:46;;;;;;;26.87;20.83;;;9.40;99.90;;;-141.84;59.34;19732.53;5068408;28;20704;-60
2023/04/09 08:55:14;;;;;;;24.47;20.47;;;9.50;99.90;;;-141.84;59.22;19726.44;5070365;28;20197;-59
2023/04/09 08:57:43;;;;;;;25.53;20.57;;;9.50;99.90;;;-141.84;58.32;19758.97;5070676;28;20255;-61
2023/04/09 09:00:13;;;;;;;23.23;19.27;;;9.60;99.90;;;-141.84;58.06;19752.88;5070574;28;20236;-62
2023/04/09 09:03:02;;;;;;;22.63;19.07;;;9.70;99.90;;;-141.84;57.26;19789.44;5069685;28;20216;-61
2023/04/09 09:05:41;;;;;;;26.53;21.00;;;9.80;99.90;;;-141.84;56.81;19761.00;5069259;28;20260;-60
2023/04/09 09:08:11;;;;;;;24.77;19.90;;;9.80;99.90;;;-141.84;57.76;19761.00;5065458;28;20236;-60
2023/04/09 09:10:42;;;;;;;25.80;20.30;;;9.80;99.90;;;-141.84;57.66;19781.31;5070383;28;20312;-61
2023/04/09 09:13:20;;;;;;;24.10;20.23;;;9.90;99.90;;;-141.84;57.93;19777.25;5071333;28;20561;-60
2023/04/09 09:15:52;;;;;;;24.80;20.97;;;10.00;99.90;;;-141.84;57.26;19809.78;5070500;28;20777;-60
2023/04/09 09:18:24;;;;;;;27.07;20.83;;;10.10;99.90;;;-141.84;57.03;19797.59;5070271;28;20228;-61
2023/04/09 09:21:10;;;;;;;25.50;21.00;;;10.10;99.90;;;-141.84;57.19;19807.75;5070551;28;20224;-60
2023/04/09 09:23:38;;;;;;;24.80;20.17;;;10.10;99.90;;;-141.84;57.67;19809.78;5070271;28;20236;-60
2023/04/09 09:26:13;;;;;;;23.70;19.27;;;10.10;99.90;;;-141.84;57.05;19815.88;5070525;28;20776;-60
2023/04/09 09:28:42;;;;;;;24.73;19.20;;;10.10;99.90;;;-141.84;56.93;19785.38;5069847;28;20215;-60
2023/04/09 09:31:11;;;;;;;23.23;18.63;;;10.10;99.90;;;-141.84;57.07;19830.09;5070641;28;20220;-61
2023/04/09 09:33:40;;;;;;;22.70;18.93;;;10.20;99.90;;;-141.84;56.67;19838.22;5070126;28;20233;-60
2023/04/09 09:36:10;;;;;;;22.87;19.17;;;10.30;99.90;;;-141.84;56.11;19842.28;5070435;28;20236;-61
2023/04/09 09:38:53;;;;;;;23.00;18.57;;;10.30;99.90;;;-141.84;55.05;19899.19;5070467;28;20232;-60
2023/04/09 09:41:23;;;;;;;24.03;19.93;;;10.40;99.90;;;-141.84;55.07;19895.13;5069756;28;20224;-61
2023/04/09 09:43:52;;;;;;;23.87;19.93;;;10.40;99.90;;;-141.84;55.89;19826.03;5081273;28;20636;-61
2023/04/09 09:46:22;;;;;;;21.97;18.23;;;10.40;99.90;;;-141.84;55.55;19862.63;5071351;28;20211;-61
2023/04/09 09:48:50;;;;;;;22.37;18.63;;;10.50;99.90;;;-141.84;54.86;19919.53;5070024;28;20225;-62
2023/04/09 09:51:27;;;;;;;22.10;18.13;;;10.60;99.90;;;-141.84;53.77;19947.97;5069955;28;20235;-60
2023/04/09 09:53:57;;;;;;;22.97;17.77;;;10.70;99.90;;;-141.84;54.43;19903.25;5069993;28;20220;-60
2023/04/09 09:56:34;;;;;;;21.43;18.03;;;10.80;99.90;;;-141.84;53.65;19907.31;5070395;28;20232;-60
2023/04/09 09:59:07;;;;;;;20.87;17.67;;;10.80;99.90;;;-141.84;53.86;19911.41;5070355;28;20449;-60
2023/04/09 10:01:37;;;;;;;22.97;18.63;;;10.80;99.90;;;-141.84;54.08;19893.09;5069853;28;20189;-61
2023/04/09 10:04:12;;;;;;;20.90;17.93;;;10.70;99.90;;;-141.84;54.36;19897.16;5070800;28;20196;-61
2023/04/09 10:06:45;;;;;;;21.20;17.60;;;10.60;99.90;;;-141.84;54.55;19887.00;5069851;28;20224;-60
2023/04/09 10:09:13;;;;;;;21.17;17.63;;;10.70;99.90;;;-141.84;54.60;19950.00;5069992;28;20228;-60
2023/04/09 10:11:44;;;;;;;22.83;18.50;;;10.80;99.90;;;-141.84;53.84;19980.50;5068034;28;20754;-60